Time;durP1;ratioP1;P1;durP2;ratioP2;P2;SDS_P1;SDS_P2;PMS_P1;PMS_P2;Temp;Humidity;BMP_temperature;BMP_pressure;BME280_temperature;BME280_humidity;BME280_pressure;Samples;Min_cycle;Max_cycle;Signal;HPM_P1;HPM_P2
2021/09/22 00:00:09;;;;;;;7.27;4.93;;;7.60;99.90;;;;;;4141612;28;20026;-65
2021/09/22 00:02:10;;;;;;;9.63;5.13;;;7.60;99.90;;;;;;4142935;28;20517;-65
2021/09/22 00:04:12;;;;;;;8.20;5.40;;;7.60;99.90;;;;;;4144038;28;20042;-65
2021/09/22 00:06:13;;;;;;;9.23;5.13;;;7.60;99.90;;;;;;4143069;28;20038;-65
2021/09/22 00:08:14;;;;;;;5.57;4.57;;;7.60;99.90;;;;;;4143490;28;20041;-65
2021/09/22 00:10:18;;;;;;;6.07;4.47;;;7.60;99.90;;;;;;4142478;28;20037;-66
2021/09/22 00:12:19;;;;;;;6.80;4.23;;;7.60;99.90;;;;;;4144189;28;20025;-66
2021/09/22 00:14:20;;;;;;;6.50;4.80;;;7.60;99.90;;;;;;4142635;28;20042;-67
2021/09/22 00:16:22;;;;;;;6.93;4.73;;;7.60;99.90;;;;;;4143835;28;20445;-69
2021/09/22 00:18:23;;;;;;;7.83;5.23;;;7.60;99.90;;;;;;4142149;28;20076;-70
2021/09/22 00:20:24;;;;;;;8.73;4.80;;;7.60;99.90;;;;;;4143176;28;20034;-66
2021/09/22 00:22:26;;;;;;;6.17;4.63;;;7.60;99.90;;;;;;4143107;28;20017;-66
2021/09/22 00:24:27;;;;;;;7.30;5.10;;;7.60;99.90;;;;;;4142858;28;20053;-67
2021/09/22 00:26:28;;;;;;;7.43;4.80;;;7.60;99.90;;;;;;4142956;28;20521;-68
2021/09/22 00:28:31;;;;;;;10.13;4.97;;;7.60;99.90;;;;;;4142301;28;20029;-66
2021/09/22 00:30:33;;;;;;;5.93;4.50;;;7.60;99.90;;;;;;4143330;28;20084;-66
2021/09/22 00:32:34;;;;;;;6.60;4.67;;;7.60;99.90;;;;;;4142091;28;20033;-66
2021/09/22 00:34:36;;;;;;;6.83;4.17;;;7.60;99.90;;;;;;4142185;28;20112;-67
2021/09/22 00:36:37;;;;;;;6.77;4.63;;;7.60;99.90;;;;;;4142277;28;20046;-66
2021/09/22 00:38:38;;;;;;;6.90;4.97;;;7.60;99.90;;;;;;4143451;28;20064;-67
2021/09/22 00:40:39;;;;;;;8.70;4.77;;;7.60;99.90;;;;;;4142239;28;20448;-65
2021/09/22 00:42:40;;;;;;;6.77;4.73;;;7.60;99.90;;;;;;4141622;28;20088;-66
2021/09/22 00:44:54;;;;;;;8.17;5.83;;;7.60;99.90;;;;;;4142399;28;20049;-65
2021/09/22 00:46:55;;;;;;;6.67;4.40;;;7.70;99.90;;;;;;4143502;28;20042;-66
2021/09/22 00:48:56;;;;;;;6.03;4.30;;;7.60;99.90;;;;;;4141984;28;20497;-66
2021/09/22 00:50:58;;;;;;;6.77;4.50;;;7.70;99.90;;;;;;4143015;28;20034;-66
2021/09/22 00:52:59;;;;;;;6.17;4.50;;;7.70;99.90;;;;;;4141761;28;20013;-65
2021/09/22 00:55:00;;;;;;;6.83;4.57;;;7.70;99.90;;;;;;4142287;28;20022;-66
2021/09/22 00:57:02;;;;;;;5.80;4.23;;;7.70;99.90;;;;;;4142394;28;20849;-65
2021/09/22 00:59:03;;;;;;;6.57;4.33;;;7.70;99.90;;;;;;4142568;28;20085;-67
2021/09/22 01:01:04;;;;;;;5.37;3.60;;;7.70;99.90;;;;;;4142669;28;20749;-66
2021/09/22 01:03:06;;;;;;;8.27;4.43;;;7.70;99.90;;;;;;4140435;28;20038;-68
2021/09/22 01:05:08;;;;;;;6.97;4.43;;;7.70;99.90;;;;;;4143365;28;20060;-66
2021/09/22 01:07:12;;;;;;;5.50;4.33;;;7.60;99.90;;;;;;4140959;28;20124;-66
2021/09/22 01:09:13;;;;;;;6.50;4.63;;;7.60;99.90;;;;;;4142798;28;20068;-65
2021/09/22 01:11:15;;;;;;;6.87;5.10;;;7.60;99.90;;;;;;4141093;28;20096;-67
2021/09/22 01:13:17;;;;;;;6.63;4.50;;;7.70;99.90;;;;;;4142202;28;20064;-69
2021/09/22 01:15:32;;;;;;;6.80;4.67;;;7.70;99.90;;;;;;4141767;28;20104;-70
2021/09/22 01:17:33;;;;;;;8.07;5.00;;;7.60;99.90;;;;;;4142808;28;20034;-65
2021/09/22 01:19:34;;;;;;;5.30;3.87;;;7.70;99.90;;;;;;4141875;28;20034;-66
2021/09/22 01:21:35;;;;;;;5.43;4.20;;;7.70;99.90;;;;;;4143106;28;20091;-66
2021/09/22 01:23:37;;;;;;;5.90;4.30;;;7.70;99.90;;;;;;4141120;28;20112;-65
2021/09/22 01:25:40;;;;;;;5.77;4.50;;;7.70;99.90;;;;;;4142477;28;20054;-66
2021/09/22 01:28:02;;;;;;;6.87;4.20;;;7.70;99.90;;;;;;4141223;28;20041;-66
2021/09/22 01:30:03;;;;;;;7.47;4.60;;;7.70;99.90;;;;;;4142765;28;20077;-66
2021/09/22 01:32:05;;;;;;;11.87;5.17;;;7.70;99.90;;;;;;4141376;28;20034;-66
2021/09/22 01:34:09;;;;;;;7.23;4.27;;;7.80;99.90;;;;;;4141525;28;20522;-65
2021/09/22 01:36:12;;;;;;;6.40;4.07;;;7.80;99.90;;;;;;4141310;28;20042;-66
2021/09/22 01:38:21;;;;;;;6.47;4.33;;;7.80;99.90;;;;;;4142220;28;20029;-66
2021/09/22 01:40:22;;;;;;;8.10;4.77;;;7.80;99.90;;;;;;4141765;28;20026;-66
2021/09/22 01:42:23;;;;;;;7.53;4.73;;;7.80;99.90;;;;;;4141730;28;20771;-68
2021/09/22 01:44:24;;;;;;;5.80;4.07;;;7.80;99.90;;;;;;4141973;28;20042;-66
2021/09/22 01:46:26;;;;;;;5.07;3.83;;;7.80;99.90;;;;;;4141118;28;20083;-67
2021/09/22 01:48:27;;;;;;;6.00;4.00;;;7.80;99.90;;;;;;4142293;28;20034;-66
2021/09/22 01:50:29;;;;;;;9.33;4.53;;;7.80;99.90;;;;;;4141224;28;20065;-66
2021/09/22 01:52:33;;;;;;;6.97;4.67;;;7.80;99.90;;;;;;4142361;28;20474;-67
2021/09/22 01:54:34;;;;;;;6.17;4.40;;;7.80;99.90;;;;;;4141386;28;20025;-68
2021/09/22 01:56:36;;;;;;;5.37;3.57;;;7.80;99.90;;;;;;4142606;28;20120;-66
2021/09/22 01:58:38;;;;;;;6.73;4.60;;;7.80;99.90;;;;;;4141025;28;20026;-66
2021/09/22 02:00:39;;;;;;;6.10;3.80;;;7.80;99.90;;;;;;4141897;28;20038;-65
2021/09/22 02:02:41;;;;;;;4.80;4.03;;;7.80;99.90;;;;;;4141135;28;20034;-65
2021/09/22 02:04:42;;;;;;;7.13;4.50;;;7.80;99.90;;;;;;4142528;28;20037;-69
2021/09/22 02:06:43;;;;;;;5.10;3.63;;;7.80;99.90;;;;;;4141181;28;20026;-65
2021/09/22 02:08:45;;;;;;;7.27;4.50;;;7.80;99.90;;;;;;4141831;28;20030;-67
2021/09/22 02:10:47;;;;;;;9.97;4.50;;;7.80;99.90;;;;;;4141059;28;20026;-66
2021/09/22 02:12:48;;;;;;;5.57;3.87;;;7.90;99.90;;;;;;4140979;28;20504;-65
2021/09/22 02:14:49;;;;;;;7.20;4.40;;;7.90;99.90;;;;;;4141587;28;20033;-65
2021/09/22 02:16:50;;;;;;;6.03;4.60;;;7.90;99.90;;;;;;4140881;28;20441;-66
2021/09/22 02:18:51;;;;;;;5.97;3.90;;;7.90;99.90;;;;;;4140964;28;20547;-66
2021/09/22 02:20:52;;;;;;;5.50;4.20;;;7.80;99.90;;;;;;4140583;28;20070;-65
2021/09/22 02:22:54;;;;;;;7.00;4.13;;;7.90;99.90;;;;;;4141683;28;20575;-65
2021/09/22 02:24:55;;;;;;;6.50;4.40;;;7.90;99.90;;;;;;4138731;28;20054;-66
2021/09/22 02:26:56;;;;;;;6.53;4.10;;;7.90;99.90;;;;;;4142006;28;20379;-65
2021/09/22 02:28:57;;;;;;;6.67;4.27;;;7.90;99.90;;;;;;4140565;28;20513;-65
2021/09/22 02:31:01;;;;;;;6.33;4.40;;;7.90;99.90;;;;;;4141348;28;20380;-66
2021/09/22 02:33:02;;;;;;;6.33;4.43;;;7.90;99.90;;;;;;4140260;28;20104;-68
2021/09/22 02:35:05;;;;;;;4.80;3.90;;;7.90;99.90;;;;;;4142258;28;20105;-65
2021/09/22 02:37:07;;;;;;;6.90;4.23;;;7.90;99.90;;;;;;4139982;28;20100;-66
2021/09/22 02:39:09;;;;;;;5.93;4.17;;;7.90;99.90;;;;;;4141350;28;20101;-64
2021/09/22 02:41:10;;;;;;;5.57;3.93;;;7.90;99.90;;;;;;4140019;28;20100;-64
2021/09/22 02:43:12;;;;;;;7.47;4.67;;;7.90;99.90;;;;;;4139948;28;20077;-65
2021/09/22 02:45:15;;;;;;;7.17;4.80;;;7.90;99.90;;;;;;4140894;28;20557;-66
2021/09/22 02:47:16;;;;;;;5.90;4.00;;;7.90;99.90;;;;;;4141098;28;20544;-65
2021/09/22 02:49:18;;;;;;;9.40;4.30;;;7.90;99.90;;;;;;4140438;28;20076;-68
2021/09/22 02:51:20;;;;;;;8.23;4.50;;;7.90;99.90;;;;;;4139196;28;20490;-66
2021/09/22 02:53:22;;;;;;;8.27;4.33;;;7.90;99.90;;;;;;4141040;28;20053;-65
2021/09/22 02:55:23;;;;;;;6.43;4.43;;;7.90;99.90;;;;;;4140434;28;20143;-65
2021/09/22 02:57:25;;;;;;;7.03;4.80;;;7.90;99.90;;;;;;4141622;28;20034;-65
2021/09/22 02:59:27;;;;;;;5.97;4.50;;;7.90;99.90;;;;;;4140106;28;20038;-68
2021/09/22 03:01:28;;;;;;;8.33;4.70;;;7.90;99.90;;;;;;4141123;28;20099;-67
2021/09/22 03:03:30;;;;;;;5.67;4.10;;;7.90;99.90;;;;;;4139944;28;20355;-65
2021/09/22 03:05:33;;;;;;;7.17;5.03;;;7.90;99.90;;;;;;4141588;28;20502;-66
2021/09/22 03:07:34;;;;;;;7.57;4.93;;;7.90;99.90;;;;;;4140036;28;20041;-66
2021/09/22 03:09:35;;;;;;;5.33;3.83;;;7.90;99.90;;;;;;4141719;28;20038;-65
2021/09/22 03:11:36;;;;;;;7.07;4.53;;;7.90;99.90;;;;;;4140031;28;20026;-66
2021/09/22 03:13:39;;;;;;;6.67;4.63;;;7.80;99.90;;;;;;4140904;28;20080;-66
2021/09/22 03:15:41;;;;;;;6.47;4.13;;;7.80;99.90;;;;;;4140282;28;20037;-66
2021/09/22 03:17:43;;;;;;;8.43;4.10;;;7.80;99.90;;;;;;4140210;28;20092;-67
2021/09/22 03:19:44;;;;;;;8.63;5.07;;;7.80;99.90;;;;;;4138612;28;20037;-65
2021/09/22 03:21:45;;;;;;;10.03;5.13;;;7.80;99.90;;;;;;4139994;28;20034;-65
2021/09/22 03:23:46;;;;;;;8.67;4.90;;;7.80;99.90;;;;;;4140311;28;20466;-66
2021/09/22 03:25:48;;;;;;;6.10;4.37;;;7.80;99.90;;;;;;4139822;28;20033;-66
2021/09/22 03:27:49;;;;;;;7.57;4.17;;;7.80;99.90;;;;;;4141068;28;20025;-66
2021/09/22 03:29:50;;;;;;;6.73;4.53;;;7.90;99.90;;;;;;4139924;28;20652;-66
2021/09/22 03:31:51;;;;;;;6.70;4.30;;;7.90;99.90;;;;;;4140641;28;20112;-66
2021/09/22 03:33:52;;;;;;;6.83;4.43;;;7.90;99.90;;;;;;4139563;28;20037;-66
2021/09/22 03:35:53;;;;;;;7.70;4.77;;;7.90;99.90;;;;;;4142052;28;20104;-65
2021/09/22 03:37:55;;;;;;;6.03;4.70;;;8.00;99.90;;;;;;4143167;28;20053;-65
2021/09/22 03:39:56;;;;;;;7.53;4.97;;;8.00;99.90;;;;;;4144415;28;20096;-65
2021/09/22 03:41:57;;;;;;;8.60;5.50;;;8.00;99.90;;;;;;4142999;28;20088;-66
2021/09/22 03:43:59;;;;;;;8.70;4.80;;;8.00;99.90;;;;;;4143908;28;20065;-66
2021/09/22 03:46:00;;;;;;;15.60;5.27;;;8.10;99.90;;;;;;4142700;28;20092;-66
2021/09/22 03:48:01;;;;;;;7.70;5.17;;;8.10;99.90;;;;;;4143102;28;20079;-67
2021/09/22 03:50:04;;;;;;;7.57;4.83;;;8.10;99.90;;;;;;4143119;28;20037;-70
2021/09/22 03:52:05;;;;;;;6.97;4.93;;;8.20;99.90;;;;;;4143471;28;20548;-69
2021/09/22 03:54:07;;;;;;;6.50;4.43;;;8.20;99.90;;;;;;4143565;28;20050;-67
2021/09/22 03:56:08;;;;;;;7.83;4.47;;;8.20;99.90;;;;;;4142522;28;20096;-67
2021/09/22 03:58:09;;;;;;;6.20;4.60;;;8.20;99.90;;;;;;4143531;28;20030;-68
2021/09/22 04:00:11;;;;;;;7.30;5.07;;;8.20;99.90;;;;;;4141831;28;20088;-66
2021/09/22 04:02:12;;;;;;;10.40;4.80;;;8.30;99.90;;;;;;4143573;28;20033;-67
2021/09/22 04:04:14;;;;;;;12.57;6.33;;;8.20;99.90;;;;;;4142969;28;20092;-66
2021/09/22 04:06:15;;;;;;;8.90;5.73;;;8.00;99.90;;;;;;4141836;28;20045;-66
2021/09/22 04:08:16;;;;;;;10.53;6.40;;;7.70;99.90;;;;;;4142327;28;20034;-68
2021/09/22 04:10:18;;;;;;;11.83;6.60;;;7.60;99.90;;;;;;4143540;28;20132;-68
2021/09/22 04:12:19;;;;;;;10.10;6.07;;;7.60;99.90;;;;;;4141965;28;20108;-66
2021/09/22 04:14:20;;;;;;;10.40;6.20;;;7.60;99.90;;;;;;4143253;28;20100;-74
2021/09/22 04:16:21;;;;;;;11.27;7.27;;;7.50;99.90;;;;;;4141968;28;20294;-66
2021/09/22 04:18:22;;;;;;;14.47;8.80;;;7.50;99.90;;;;;;4142336;28;20545;-68
2021/09/22 04:20:24;;;;;;;14.83;9.00;;;7.50;99.90;;;;;;4142051;28;20084;-67
2021/09/22 04:22:25;;;;;;;13.90;8.27;;;7.40;99.90;;;;;;4142766;28;20152;-68
2021/09/22 04:24:26;;;;;;;13.80;7.77;;;7.40;99.90;;;;;;4142564;28;20045;-69
2021/09/22 04:26:27;;;;;;;11.57;7.33;;;7.30;99.90;;;;;;4142340;28;20096;-66
2021/09/22 04:28:28;;;;;;;12.37;7.13;;;7.30;99.90;;;;;;4143070;28;20383;-66
2021/09/22 04:30:30;;;;;;;11.93;7.93;;;7.20;99.90;;;;;;4141501;28;20080;-65
2021/09/22 04:32:31;;;;;;;12.23;7.90;;;7.10;99.90;;;;;;4143221;28;20076;-66
2021/09/22 04:34:32;;;;;;;14.60;8.60;;;7.00;99.90;;;;;;4142157;28;20033;-67
2021/09/22 04:36:33;;;;;;;12.30;7.10;;;7.00;99.90;;;;;;4142501;28;20026;-66
2021/09/22 04:38:35;;;;;;;12.50;7.77;;;7.00;99.90;;;;;;4141388;28;20125;-68
2021/09/22 04:40:37;;;;;;;11.43;7.70;;;7.00;99.90;;;;;;4142231;28;20425;-68
2021/09/22 04:42:38;;;;;;;13.00;8.47;;;7.00;99.90;;;;;;4129670;28;20601;-67
2021/09/22 04:44:40;;;;;;;15.63;9.40;;;7.00;99.90;;;;;;4126467;28;20081;-67
2021/09/22 04:46:41;;;;;;;18.13;10.17;;;6.90;99.90;;;;;;4125536;28;20159;-66
2021/09/22 04:48:42;;;;;;;15.30;9.50;;;6.90;99.90;;;;;;4126363;28;20975;-66
2021/09/22 04:50:43;;;;;;;15.93;9.43;;;6.70;99.90;;;;;;4125894;28;20041;-67
2021/09/22 04:52:45;;;;;;;16.47;9.13;;;6.60;99.90;;;;;;4125888;28;20089;-66
2021/09/22 04:54:46;;;;;;;20.00;10.37;;;6.60;99.90;;;;;;4126557;28;20030;-67
2021/09/22 04:56:47;;;;;;;15.20;9.20;;;6.60;99.90;;;;;;4125498;28;20434;-66
2021/09/22 04:58:48;;;;;;;19.30;9.67;;;6.60;99.90;;;;;;4130746;28;20029;-67
2021/09/22 05:00:49;;;;;;;19.43;10.80;;;6.60;99.90;;;;;;4138374;28;21187;-64
2021/09/22 05:02:50;;;;;;;20.03;11.60;;;6.50;99.90;;;;;;4126714;28;20038;-65
2021/09/22 05:04:52;;;;;;;17.23;10.47;;;6.50;99.90;;;;;;4126063;28;20034;-70
2021/09/22 05:06:53;;;;;;;16.00;10.20;;;6.50;99.90;;;;;;4126422;28;20870;-66
2021/09/22 05:08:54;;;;;;;16.37;10.07;;;6.50;99.90;;;;;;4125718;28;20471;-67
2021/09/22 05:10:55;;;;;;;18.70;10.87;;;6.50;99.90;;;;;;4126477;28;20376;-65
2021/09/22 05:12:56;;;;;;;16.63;10.23;;;6.60;99.90;;;;;;4125378;28;20045;-66
2021/09/22 05:14:58;;;;;;;18.47;11.17;;;6.60;99.90;;;;;;4126600;28;20426;-67
2021/09/22 05:16:59;;;;;;;18.23;9.90;;;6.60;99.90;;;;;;4125337;28;20497;-66
2021/09/22 05:19:00;;;;;;;16.60;10.03;;;6.60;99.90;;;;;;4124662;28;20073;-66
2021/09/22 05:21:01;;;;;;;17.43;9.67;;;6.60;99.90;;;;;;4125905;28;20035;-67
2021/09/22 05:23:03;;;;;;;19.67;10.30;;;6.70;99.90;;;;;;4132287;28;20046;-71
2021/09/22 05:25:05;;;;;;;16.37;9.50;;;6.70;99.90;;;;;;4141784;28;20030;-74
2021/09/22 05:27:08;;;;;;;15.17;9.60;;;6.80;99.90;;;;;;4141217;28;20030;-73
2021/09/22 05:29:09;;;;;;;15.17;9.50;;;6.80;99.90;;;;;;4142237;28;20041;-76
2021/09/22 05:31:10;;;;;;;15.70;9.40;;;6.80;99.90;;;;;;4140409;28;20072;-69
2021/09/22 05:33:11;;;;;;;20.77;10.50;;;6.80;99.90;;;;;;4140765;28;20878;-70
2021/09/22 05:35:12;;;;;;;16.70;10.30;;;6.90;99.90;;;;;;4141322;28;20018;-66
2021/09/22 05:37:14;;;;;;;24.33;13.67;;;6.90;99.90;;;;;;4141686;28;20099;-65
2021/09/22 05:39:15;;;;;;;19.70;10.90;;;6.90;99.90;;;;;;4140654;28;20042;-71
2021/09/22 05:41:16;;;;;;;16.03;9.40;;;7.00;99.90;;;;;;4141820;28;20531;-74
2021/09/22 05:43:17;;;;;;;17.23;9.33;;;7.00;99.90;;;;;;4140772;28;20080;-67
2021/09/22 05:45:20;;;;;;;20.77;10.77;;;7.00;99.90;;;;;;4142155;28;20050;-66
2021/09/22 05:47:21;;;;;;;17.27;10.23;;;7.10;99.90;;;;;;4140165;28;20037;-75
2021/09/22 05:49:22;;;;;;;18.73;10.17;;;7.10;99.90;;;;;;4141490;28;20088;-72
2021/09/22 05:51:23;;;;;;;20.03;9.70;;;7.10;99.90;;;;;;4140927;28;20441;-72
2021/09/22 05:53:25;;;;;;;17.40;10.23;;;7.10;99.90;;;;;;4141548;28;20025;-69
2021/09/22 05:55:26;;;;;;;22.07;10.87;;;7.10;99.90;;;;;;4139971;28;20046;-72
2021/09/22 05:57:27;;;;;;;19.70;10.57;;;7.10;99.90;;;;;;4140269;28;20026;-66
2021/09/22 05:59:30;;;;;;;46.87;19.23;;;7.20;99.90;;;;;;4140886;28;20949;-68
2021/09/22 06:01:31;;;;;;;30.70;15.73;;;7.20;99.90;;;;;;4140758;28;20077;-68
2021/09/22 06:03:34;;;;;;;31.03;16.83;;;7.20;99.90;;;;;;4141817;28;20034;-71
2021/09/22 06:05:36;;;;;;;26.30;13.67;;;7.20;99.90;;;;;;4140905;28;20099;-69
2021/09/22 06:07:37;;;;;;;26.83;14.43;;;7.20;99.90;;;;;;4140291;28;20494;-66
2021/09/22 06:09:38;;;;;;;21.37;12.80;;;7.10;99.90;;;;;;4140954;28;20022;-70
2021/09/22 06:11:39;;;;;;;21.60;13.27;;;7.10;99.90;;;;;;4142096;28;20084;-66
2021/09/22 06:13:41;;;;;;;24.23;13.63;;;7.10;99.90;;;;;;4140939;28;20522;-65
2021/09/22 06:15:42;;;;;;;25.30;13.47;;;7.10;99.90;;;;;;4141656;28;20042;-66
2021/09/22 06:17:44;;;;;;;22.77;12.97;;;7.10;99.90;;;;;;4135389;28;20076;-66
2021/09/22 06:19:46;;;;;;;28.03;13.80;;;7.10;99.90;;;;;;4140681;28;20084;-66
2021/09/22 06:21:47;;;;;;;25.43;12.67;;;7.10;99.90;;;;;;4140388;28;20033;-66
2021/09/22 06:23:52;;;;;;;23.23;12.83;;;7.10;99.90;;;;;;4140869;28;20104;-68
2021/09/22 06:25:54;;;;;;;22.10;11.83;;;7.10;99.90;;;;;;4139571;28;20088;-66
2021/09/22 06:27:55;;;;;;;22.50;11.63;;;7.20;99.90;;;;;;4140453;28;20514;-66
2021/09/22 06:29:56;;;;;;;17.00;10.87;;;7.20;99.90;;;;;;4138160;28;20021;-66
2021/09/22 06:31:57;;;;;;;19.67;11.27;;;7.30;99.90;;;;;;4139200;28;20030;-66
2021/09/22 06:33:59;;;;;;;19.07;10.60;;;7.30;99.90;;;;;;4140518;28;20046;-67
2021/09/22 06:36:00;;;;;;;18.50;10.17;;;7.40;99.90;;;;;;4139172;28;20038;-70
2021/09/22 06:38:03;;;;;;;17.63;9.37;;;7.40;99.90;;;;;;4139607;28;20042;-67
2021/09/22 06:40:06;;;;;;;15.20;9.30;;;7.40;99.90;;;;;;4138324;28;20457;-67
2021/09/22 06:42:07;;;;;;;19.70;11.17;;;7.40;99.90;;;;;;4139815;28;20045;-67
2021/09/22 06:44:08;;;;;;;15.67;9.87;;;7.40;99.90;;;;;;4136947;28;20107;-65
2021/09/22 06:46:09;;;;;;;21.20;12.40;;;7.30;99.90;;;;;;4137620;28;20092;-67
2021/09/22 06:48:11;;;;;;;22.57;12.40;;;7.40;99.90;;;;;;4138930;28;20034;-67
2021/09/22 06:50:12;;;;;;;27.20;13.23;;;7.40;99.90;;;;;;4140130;28;20030;-67
2021/09/22 06:52:13;;;;;;;24.73;13.63;;;7.40;99.90;;;;;;4137031;28;20551;-66
2021/09/22 06:54:15;;;;;;;27.67;13.23;;;7.40;99.90;;;;;;4140127;28;20115;-66
2021/09/22 06:56:16;;;;;;;32.47;15.53;;;7.40;99.90;;;;;;4135971;28;20013;-65
2021/09/22 06:58:17;;;;;;;23.33;14.00;;;7.40;99.90;;;;;;4138521;28;20026;-66
2021/09/22 07:00:19;;;;;;;27.57;14.33;;;7.40;99.90;;;;;;4138153;28;20486;-66
2021/09/22 07:02:20;;;;;;;29.67;15.03;;;7.40;99.90;;;;;;4138666;28;20042;-65
2021/09/22 07:04:21;;;;;;;28.50;16.27;;;7.40;99.90;;;;;;4137166;28;20049;-66
2021/09/22 07:06:22;;;;;;;29.17;14.97;;;7.40;99.90;;;;;;4140114;28;20572;-66
2021/09/22 07:08:24;;;;;;;27.70;15.87;;;7.50;99.90;;;;;;4141066;28;20831;-66
2021/09/22 07:10:27;;;;;;;57.07;28.03;;;7.50;99.90;;;;;;4139536;28;20022;-66
2021/09/22 07:12:30;;;;;;;39.50;21.60;;;7.60;99.90;;;;;;4139858;28;20054;-66
2021/09/22 07:14:32;;;;;;;28.10;16.97;;;7.60;99.90;;;;;;4139071;28;20029;-67
2021/09/22 07:16:33;;;;;;;32.37;17.00;;;7.60;99.90;;;;;;4138135;28;20080;-73
2021/09/22 07:18:34;;;;;;;31.30;17.93;;;7.70;99.90;;;;;;4137687;28;20053;-69
2021/09/22 07:20:36;;;;;;;28.47;17.00;;;7.70;99.90;;;;;;4138631;28;20069;-65
2021/09/22 07:22:37;;;;;;;30.50;17.27;;;7.70;99.90;;;;;;4137923;28;20096;-65
2021/09/22 07:24:38;;;;;;;27.33;16.37;;;7.70;99.90;;;;;;4139055;28;20498;-70
2021/09/22 07:26:40;;;;;;;26.80;15.23;;;7.80;99.90;;;;;;4136133;28;20054;-65
2021/09/22 07:28:41;;;;;;;25.53;13.97;;;7.90;99.90;;;;;;4138492;28;20057;-66
2021/09/22 07:30:42;;;;;;;23.67;14.13;;;7.90;99.90;;;;;;4138732;28;20026;-71
2021/09/22 07:32:46;;;;;;;22.37;13.53;;;7.90;99.90;;;;;;4137910;28;20034;-67
2021/09/22 07:34:47;;;;;;;23.03;13.97;;;7.90;99.90;;;;;;4138250;28;20441;-67
2021/09/22 07:36:49;;;;;;;20.10;12.83;;;7.90;99.90;;;;;;4139096;28;20473;-71
2021/09/22 07:38:50;;;;;;;22.40;13.40;;;7.90;99.90;;;;;;4137337;28;20053;-65
2021/09/22 07:40:52;;;;;;;21.40;12.93;;;7.90;99.90;;;;;;4137188;28;20038;-68
2021/09/22 07:42:53;;;;;;;21.03;12.47;;;7.90;99.90;;;;;;4139689;28;20042;-71
2021/09/22 07:44:54;;;;;;;21.97;13.00;;;7.90;99.90;;;;;;4138631;28;20080;-67
2021/09/22 07:46:55;;;;;;;19.97;12.40;;;8.00;99.90;;;;;;4138289;28;20050;-67
2021/09/22 07:48:57;;;;;;;21.00;12.50;;;8.10;99.90;;;;;;4139060;28;20482;-68
2021/09/22 07:50:58;;;;;;;24.30;12.90;;;8.20;99.90;;;;;;4140449;28;20470;-67
2021/09/22 07:52:59;;;;;;;24.83;13.23;;;8.20;99.90;;;;;;4139112;28;20494;-67
2021/09/22 07:55:02;;;;;;;21.90;13.27;;;8.20;99.90;;;;;;4139319;28;20037;-68
2021/09/22 07:57:03;;;;;;;54.37;24.27;;;8.30;99.90;;;;;;4137821;28;20038;-68
2021/09/22 07:59:04;;;;;;;33.63;19.00;;;8.40;99.90;;;;;;4140439;28;20080;-69
2021/09/22 08:01:06;;;;;;;37.83;20.70;;;8.50;99.90;;;;;;4138170;28;20970;-70
2021/09/22 08:03:07;;;;;;;23.93;15.20;;;8.50;99.90;;;;;;4139765;28;20041;-72
2021/09/22 08:05:08;;;;;;;26.00;15.60;;;8.50;99.90;;;;;;4140358;28;20046;-68
2021/09/22 08:07:10;;;;;;;29.40;17.63;;;8.50;99.90;;;;;;4139147;28;20041;-68
2021/09/22 08:09:11;;;;;;;33.80;17.70;;;8.50;99.90;;;;;;4140310;28;20029;-68
2021/09/22 08:11:13;;;;;;;34.27;17.73;;;8.50;99.90;;;;;;4138919;28;20050;-68
2021/09/22 08:13:15;;;;;;;30.70;18.33;;;8.50;99.90;;;;;;4140314;28;20495;-70
2021/09/22 08:15:17;;;;;;;27.33;17.90;;;8.60;99.90;;;;;;4139120;28;20148;-68
2021/09/22 08:17:19;;;;;;;31.07;18.47;;;8.60;99.90;;;;;;4139627;28;20034;-68
2021/09/22 08:19:20;;;;;;;30.90;18.37;;;8.70;99.90;;;;;;4137614;28;20429;-68
2021/09/22 08:21:21;;;;;;;31.07;18.97;;;8.70;99.90;;;;;;4141167;28;20038;-70
2021/09/22 08:23:22;;;;;;;30.73;16.70;;;8.80;99.90;;;;;;4141835;28;20124;-68
2021/09/22 08:25:24;;;;;;;30.70;18.70;;;8.90;99.90;;;;;;4143179;28;20105;-66
2021/09/22 08:27:26;;;;;;;41.53;25.20;;;8.90;99.90;;;;;;4141475;28;20038;-68
2021/09/22 08:29:27;;;;;;;39.93;24.33;;;8.90;99.90;;;;;;4143048;28;20041;-67
2021/09/22 08:31:28;;;;;;;39.27;22.67;;;8.90;99.90;;;;;;4142297;28;20026;-72
2021/09/22 08:33:30;;;;;;;33.40;21.17;;;9.00;99.90;;;;;;4141846;28;20034;-68
2021/09/22 08:35:31;;;;;;;31.40;20.07;;;9.00;99.90;;;;;;4142717;28;20466;-67
2021/09/22 08:37:32;;;;;;;28.43;16.97;;;9.10;99.90;;;;;;4140221;28;20568;-70
2021/09/22 08:39:33;;;;;;;24.10;15.03;;;9.10;99.90;;;;;;4142084;28;20096;-68
2021/09/22 08:41:34;;;;;;;23.03;13.53;;;9.10;99.90;;;;;;4141445;28;20042;-68
2021/09/22 08:43:36;;;;;;;30.47;14.67;;;9.20;99.90;;;;;;4142885;28;20091;-72
2021/09/22 08:45:38;;;;;;;23.23;13.27;;;9.20;99.90;;;;;;4141509;28;20029;-70
2021/09/22 08:47:46;;;;;;;26.23;13.43;;;9.20;99.90;;;;;;4142631;28;20095;-68
2021/09/22 08:49:51;;;;;;;17.83;10.73;;;9.20;99.90;;;;;;4138292;28;20475;-73
2021/09/22 08:51:53;;;;;;;17.37;10.37;;;9.20;99.90;;;;;;4140489;28;20042;-68
2021/09/22 08:53:54;;;;;;;16.13;9.40;;;9.20;99.90;;;;;;4137920;28;20469;-70
2021/09/22 08:55:55;;;;;;;19.27;11.73;;;9.20;99.90;;;;;;4141263;28;20058;-74
2021/09/22 08:57:56;;;;;;;19.07;11.13;;;9.20;99.90;;;;;;4136013;28;20528;-69
2021/09/22 08:59:58;;;;;;;14.67;9.73;;;9.30;99.90;;;;;;4142082;28;20097;-70
2021/09/22 09:02:20;;;;;;;15.57;9.83;;;9.20;99.90;;;;;;4141499;28;20038;-68
2021/09/22 09:04:21;;;;;;;13.70;8.80;;;9.20;99.90;;;;;;4142396;28;20029;-69
2021/09/22 09:06:24;;;;;;;20.90;9.03;;;9.30;99.90;;;;;;4141972;28;20084;-69
2021/09/22 09:08:27;;;;;;;16.80;9.97;;;9.30;99.90;;;;;;4142813;28;20096;-68
2021/09/22 09:10:32;;;;;;;15.03;9.67;;;9.30;99.90;;;;;;4141653;28;20587;-71
2021/09/22 09:12:33;;;;;;;18.23;9.87;;;9.20;99.90;;;;;;4140971;28;20088;-68
2021/09/22 09:14:35;;;;;;;13.63;8.67;;;9.30;99.90;;;;;;4141499;28;20029;-72
2021/09/22 09:16:47;;;;;;;15.43;8.93;;;9.30;99.90;;;;;;4141294;28;20030;-68
2021/09/22 09:18:51;;;;;;;14.87;9.97;;;9.30;99.90;;;;;;4141263;28;20034;-67
2021/09/22 09:20:54;;;;;;;16.23;11.30;;;9.30;99.90;;;;;;4140228;28;20104;-68
2021/09/22 09:23:01;;;;;;;19.53;13.13;;;9.40;99.90;;;;;;4142265;28;20029;-69
2021/09/22 09:25:03;;;;;;;24.20;14.43;;;9.50;99.90;;;;;;4141433;28;20092;-68
2021/09/22 09:27:11;;;;;;;25.80;15.37;;;9.50;99.90;;;;;;4142532;28;20038;-68
2021/09/22 09:29:12;;;;;;;17.63;11.23;;;9.50;99.90;;;;;;4141338;28;20064;-68
2021/09/22 09:31:13;;;;;;;18.67;11.07;;;9.50;99.90;;;;;;4142420;28;20030;-72
2021/09/22 09:33:43;;;;;;;15.40;9.60;;;9.50;99.90;;;;;;4139992;28;20084;-72
2021/09/22 09:35:46;;;;;;;14.15;7.97;;;9.50;99.90;;;;;;4139375;28;20038;-68
2021/09/22 09:37:51;;;;;;;14.00;8.63;;;9.40;99.90;;;;;;4136935;28;20037;-68
2021/09/22 09:39:52;;;;;;;15.17;8.40;;;9.40;99.90;;;;;;4141451;28;20018;-67
2021/09/22 09:41:55;;;;;;;14.00;8.30;;;9.40;99.90;;;;;;4140503;28;20121;-73
2021/09/22 09:43:57;;;;;;;14.03;9.07;;;9.30;99.90;;;;;;4142055;28;20154;-68
2021/09/22 09:45:59;;;;;;;14.67;8.43;;;9.30;99.90;;;;;;4140561;28;20084;-68
2021/09/22 09:48:22;;;;;;;15.37;9.07;;;9.30;99.90;;;;;;4142466;28;20084;-71
2021/09/22 09:50:23;;;;;;;13.23;8.67;;;9.40;99.90;;;;;;4141409;28;20052;-69
2021/09/22 09:52:24;;;;;;;14.27;8.00;;;9.40;99.90;;;;;;4142521;28;20489;-73
2021/09/22 09:54:25;;;;;;;13.73;8.57;;;9.40;99.90;;;;;;4140710;28;20030;-69
2021/09/22 09:56:30;;;;;;;12.43;7.97;;;9.40;99.90;;;;;;4142388;28;20442;-73
2021/09/22 09:58:43;;;;;;;14.50;8.93;;;9.40;99.90;;;;;;4140236;28;20022;-68
2021/09/22 10:00:46;;;;;;;12.73;7.47;;;9.50;99.90;;;;;;4141972;28;20421;-68
2021/09/22 10:02:50;;;;;;;16.27;8.50;;;9.50;99.90;;;;;;4140437;28;20030;-68
2021/09/22 10:04:51;;;;;;;15.93;9.10;;;9.60;99.90;;;;;;4142254;28;20080;-69
2021/09/22 10:06:53;;;;;;;15.10;8.90;;;9.70;99.90;;;;;;4140669;28;20057;-74
2021/09/22 10:08:55;;;;;;;13.57;7.30;;;9.80;99.90;;;;;;4140918;28;20101;-73
2021/09/22 10:10:57;;;;;;;13.10;8.77;;;10.00;99.90;;;;;;4139500;28;20034;-68
2021/09/22 10:13:00;;;;;;;18.53;9.37;;;10.00;99.90;;;;;;4140206;28;20096;-73
2021/09/22 10:15:01;;;;;;;13.47;9.07;;;10.10;99.90;;;;;;4140744;28;20092;-74
2021/09/22 10:17:03;;;;;;;11.40;8.23;;;10.30;99.90;;;;;;4140432;28;20935;-75
2021/09/22 10:19:07;;;;;;;14.43;9.00;;;10.40;99.90;;;;;;4141244;28;20033;-74
2021/09/22 10:21:08;;;;;;;14.47;9.03;;;10.50;99.90;;;;;;4140477;28;20116;-68
2021/09/22 10:23:11;;;;;;;14.37;8.60;;;10.40;99.90;;;;;;4141413;28;20026;-69
2021/09/22 10:25:17;;;;;;;11.57;7.53;;;10.40;99.90;;;;;;4153992;28;20080;-69
2021/09/22 10:27:20;;;;;;;16.80;8.43;;;10.30;99.90;;;;;;4145643;28;20049;-69
2021/09/22 10:29:23;;;;;;;15.17;8.93;;;10.40;99.90;;;;;;4140255;28;20449;-68
2021/09/22 10:31:27;;;;;;;11.53;7.90;;;10.50;99.90;;;;;;4139953;28;20072;-71
2021/09/22 10:33:32;;;;;;;12.23;8.33;;;10.50;99.90;;;;;;4127487;28;20106;-69